Time;durP1;ratioP1;P1;durP2;ratioP2;P2;SDS_P1;SDS_P2;PMS_P1;PMS_P2;Temp;Humidity;BMP_temperature;BMP_pressure;BME280_temperature;BME280_humidity;BME280_pressure;Samples;Min_cycle;Max_cycle;Signal;HPM_P1;HPM_P2
2022/04/28 00:01:04;;;;;;;8.65;5.38;;;8.30;99.90;;;;;;5058555;28;20025;-59
2022/04/28 00:03:29;;;;;;;11.05;6.45;;;8.20;99.90;;;;;;5076186;28;20023;-59
2022/04/28 00:05:57;;;;;;;10.98;5.50;;;8.20;99.90;;;;;;5076844;28;20037;-59
2022/04/28 00:08:23;;;;;;;10.10;6.88;;;8.20;99.90;;;;;;5058790;28;20028;-58
2022/04/28 00:10:49;;;;;;;9.00;6.00;;;8.20;99.90;;;;;;5076226;28;20021;-57
2022/04/28 00:13:15;;;;;;;11.15;5.85;;;8.10;99.90;;;;;;5076347;28;20016;-58
2022/04/28 00:15:41;;;;;;;10.88;6.88;;;8.10;99.90;;;;;;5058288;28;20017;-59
2022/04/28 00:18:07;;;;;;;8.15;5.97;;;8.00;99.90;;;;;;5076026;28;20028;-59
2022/04/28 00:20:32;;;;;;;10.43;6.47;;;8.00;99.90;;;;;;5057805;28;20028;-58
2022/04/28 00:22:58;;;;;;;10.20;5.90;;;7.90;99.90;;;;;;5075833;28;20102;-58
2022/04/28 00:25:23;;;;;;;9.93;6.50;;;7.90;99.90;;;;;;5076054;28;20147;-56
2022/04/28 00:27:50;;;;;;;11.98;6.00;;;7.80;99.90;;;;;;5058531;28;20123;-58
2022/04/28 00:30:16;;;;;;;9.63;6.65;;;7.80;99.90;;;;;;5057962;28;20032;-59
2022/04/28 00:32:42;;;;;;;12.18;6.82;;;7.80;99.90;;;;;;5057935;28;20021;-59
2022/04/28 00:35:08;;;;;;;10.10;6.22;;;7.70;99.90;;;;;;5057653;28;20025;-58
2022/04/28 00:37:34;;;;;;;8.95;5.88;;;7.70;99.90;;;;;;5075857;28;20036;-59
2022/04/28 00:40:01;;;;;;;10.93;6.68;;;7.60;99.90;;;;;;5057433;28;20024;-59
2022/04/28 00:42:27;;;;;;;11.05;7.00;;;7.80;99.90;;;;;;5075399;28;20024;-59
2022/04/28 00:44:53;;;;;;;13.05;6.22;;;7.90;99.90;;;;;;5057339;28;20031;-58
2022/04/28 00:47:18;;;;;;;13.63;6.88;;;8.00;99.90;;;;;;5057236;28;20035;-59
2022/04/28 00:52:30;;;;;;;8.77;5.55;;;8.10;99.90;;;;;;5075336;28;20028;-57
2022/04/28 00:54:57;;;;;;;8.02;5.20;;;8.10;99.90;;;;;;5074537;28;20044;-57
2022/04/28 00:57:23;;;;;;;9.43;6.32;;;8.10;99.90;;;;;;5057555;28;20032;-57
2022/04/28 00:59:50;;;;;;;10.63;6.00;;;8.00;99.90;;;;;;5057299;28;20032;-59
2022/04/28 01:02:19;;;;;;;14.45;6.63;;;8.00;99.90;;;;;;5075258;28;20037;-57
2022/04/28 01:04:46;;;;;;;8.85;5.72;;;7.90;99.90;;;;;;5075351;28;20036;-59
2022/04/28 01:07:12;;;;;;;11.38;6.63;;;7.90;99.90;;;;;;5057062;28;20091;-58
2022/04/28 01:09:41;;;;;;;8.55;5.85;;;7.80;99.90;;;;;;5075223;28;20016;-55
2022/04/28 01:12:16;;;;;;;11.18;6.35;;;8.00;99.90;;;;;;5057763;28;20028;-58
2022/04/28 01:14:44;;;;;;;13.40;7.13;;;8.00;99.90;;;;;;5057370;28;20020;-58
2022/04/28 01:17:10;;;;;;;12.13;6.90;;;7.90;99.90;;;;;;5056856;28;20032;-58
2022/04/28 01:19:35;;;;;;;13.32;6.85;;;7.80;99.90;;;;;;5056921;28;20025;-59
2022/04/28 01:22:01;;;;;;;10.70;6.95;;;7.70;99.90;;;;;;5056809;28;20029;-59
2022/04/28 01:24:27;;;;;;;11.45;6.53;;;7.60;99.90;;;;;;5074779;28;20058;-59
2022/04/28 01:26:58;;;;;;;9.88;6.90;;;7.50;99.90;;;;;;5074648;28;20267;-57
2022/04/28 01:29:23;;;;;;;13.50;6.97;;;7.60;99.90;;;;;;5074961;28;20027;-58
2022/04/28 01:31:49;;;;;;;14.07;7.47;;;7.50;99.90;;;;;;5074524;28;20016;-58
2022/04/28 01:34:15;;;;;;;12.73;7.10;;;7.50;99.90;;;;;;5057256;28;20025;-59
2022/04/28 01:36:40;;;;;;;13.98;7.68;;;7.50;99.90;;;;;;5056891;28;20468;-58
2022/04/28 01:39:10;;;;;;;11.60;5.95;;;7.40;99.90;;;;;;5056671;28;20025;-58
2022/04/28 01:41:36;;;;;;;11.23;6.85;;;7.30;99.90;;;;;;5056427;28;20017;-58
2022/04/28 01:44:02;;;;;;;12.93;7.65;;;7.30;99.90;;;;;;5074555;28;20028;-59
2022/04/28 01:46:28;;;;;;;16.10;8.15;;;7.30;99.90;;;;;;5056756;28;20048;-56
2022/04/28 01:48:55;;;;;;;12.70;7.90;;;7.20;99.90;;;;;;5056116;28;20016;-54
2022/04/28 01:56:48;;;;;;;12.43;7.38;;;7.00;99.90;;;;;;5074545;28;20036;-58
2022/04/28 01:59:14;;;;;;;15.60;7.95;;;6.90;99.90;;;;;;5056299;28;20020;-58
2022/04/28 02:01:40;;;;;;;13.10;7.07;;;6.90;99.90;;;;;;5056034;28;20024;-57
2022/04/28 02:04:05;;;;;;;13.45;7.40;;;6.90;99.90;;;;;;5073967;28;20033;-55
2022/04/28 02:06:31;;;;;;;13.93;7.85;;;6.90;99.90;;;;;;5073238;28;20074;-59
2022/04/28 02:08:57;;;;;;;14.70;7.72;;;6.90;99.90;;;;;;5055972;28;20419;-59
2022/04/28 02:11:22;;;;;;;13.93;7.63;;;6.90;99.90;;;;;;5074123;28;20107;-60
2022/04/28 02:13:48;;;;;;;10.52;7.00;;;6.90;99.90;;;;;;5073707;28;20047;-58
2022/04/28 02:16:14;;;;;;;12.00;7.38;;;6.90;99.90;;;;;;5073779;28;20020;-60
2022/04/28 02:18:40;;;;;;;13.45;8.30;;;7.00;99.90;;;;;;5055852;28;20055;-54
2022/04/28 02:21:05;;;;;;;15.68;7.80;;;6.90;99.90;;;;;;5055641;28;20025;-56
2022/04/28 02:23:31;;;;;;;13.02;7.10;;;6.80;99.90;;;;;;5056129;28;20029;-59
2022/04/28 02:25:57;;;;;;;16.35;7.47;;;6.80;99.90;;;;;;5073682;28;20024;-59
2022/04/28 02:28:23;;;;;;;12.88;7.40;;;6.80;99.90;;;;;;5055816;28;20451;-60
2022/04/28 02:30:48;;;;;;;13.35;7.57;;;6.80;99.90;;;;;;5055853;28;20107;-58
2022/04/28 02:33:16;;;;;;;15.20;7.90;;;6.70;99.90;;;;;;5055626;28;20056;-60
2022/04/28 02:35:42;;;;;;;15.32;7.03;;;6.70;99.90;;;;;;5073653;28;20506;-59
2022/04/28 02:38:07;;;;;;;11.85;7.10;;;6.70;99.90;;;;;;5073717;28;20028;-58
2022/04/28 02:40:33;;;;;;;16.98;9.70;;;6.70;99.90;;;;;;5073462;28;20123;-56
2022/04/28 02:42:59;;;;;;;11.35;7.32;;;6.60;99.90;;;;;;5055639;28;20028;-59
2022/04/28 02:45:25;;;;;;;15.88;8.48;;;6.60;99.90;;;;;;5055312;28;20028;-59
2022/04/28 02:47:51;;;;;;;13.65;7.68;;;6.50;99.90;;;;;;5055364;28;20028;-55
2022/04/28 02:50:21;;;;;;;12.93;7.75;;;6.40;99.90;;;;;;5055170;28;20020;-55
2022/04/28 02:52:48;;;;;;;17.15;8.27;;;6.40;99.90;;;;;;5073286;28;20040;-58
2022/04/28 02:55:13;;;;;;;18.92;8.63;;;6.30;99.90;;;;;;5055252;28;20032;-58
2022/04/28 02:57:39;;;;;;;16.85;9.10;;;6.20;99.90;;;;;;5072985;28;20028;-59
2022/04/28 03:00:05;;;;;;;17.73;9.80;;;6.20;99.90;;;;;;5055127;28;20438;-56
2022/04/28 03:02:31;;;;;;;16.35;8.70;;;6.20;99.90;;;;;;5055087;28;20036;-56
2022/04/28 03:04:57;;;;;;;15.68;8.93;;;6.20;99.90;;;;;;5055214;28;20036;-57
2022/04/28 03:12:52;;;;;;;19.55;9.68;;;6.20;99.90;;;;;;5073338;28;20370;-56
2022/04/28 03:15:18;;;;;;;18.48;9.38;;;6.20;99.90;;;;;;5055654;28;20017;-58
2022/04/28 03:17:43;;;;;;;15.18;8.20;;;6.20;99.90;;;;;;5054528;28;20028;-55
2022/04/28 03:20:10;;;;;;;19.90;8.77;;;6.10;99.90;;;;;;5054925;28;20031;-58
2022/04/28 03:22:36;;;;;;;17.63;8.98;;;6.00;99.90;;;;;;5072647;28;20399;-60
2022/04/28 03:25:03;;;;;;;15.63;9.25;;;6.00;99.90;;;;;;5054917;28;20021;-58
2022/04/28 03:27:31;;;;;;;19.52;9.50;;;6.00;99.90;;;;;;5072686;28;20016;-56
2022/04/28 03:29:57;;;;;;;16.13;9.43;;;6.00;99.90;;;;;;5055177;28;20039;-58
2022/04/28 03:32:23;;;;;;;16.30;9.10;;;5.90;99.90;;;;;;5072738;28;20020;-60
2022/04/28 03:34:48;;;;;;;19.88;9.68;;;5.90;99.90;;;;;;5072958;28;20095;-57
2022/04/28 03:37:15;;;;;;;14.52;9.02;;;5.90;99.90;;;;;;5055159;28;20032;-59
2022/04/28 03:39:40;;;;;;;15.43;9.35;;;5.90;99.90;;;;;;5072646;28;20024;-58
2022/04/28 03:42:06;;;;;;;20.33;9.70;;;5.90;99.90;;;;;;5054718;28;20036;-60
2022/04/28 03:44:32;;;;;;;19.48;10.10;;;5.80;99.90;;;;;;5054473;28;20021;-59
2022/04/28 03:46:58;;;;;;;18.92;8.82;;;5.80;99.90;;;;;;5054456;28;20399;-57
2022/04/28 03:49:23;;;;;;;17.25;10.27;;;5.80;99.90;;;;;;5054476;28;20347;-56
2022/04/28 03:51:49;;;;;;;16.92;9.57;;;5.80;99.90;;;;;;5072424;28;20021;-56
2022/04/28 03:54:15;;;;;;;19.95;9.75;;;5.80;99.90;;;;;;5054794;28;20021;-60
2022/04/28 03:56:40;;;;;;;15.50;8.50;;;5.80;99.90;;;;;;5072362;28;20490;-54
2022/04/28 03:59:06;;;;;;;19.80;9.82;;;5.80;99.90;;;;;;5054877;28;20025;-56
2022/04/28 04:01:31;;;;;;;17.73;9.68;;;5.70;99.90;;;;;;5072777;28;20072;-58
2022/04/28 04:03:57;;;;;;;16.38;9.40;;;5.70;99.90;;;;;;5072189;28;20024;-57
2022/04/28 04:06:23;;;;;;;15.93;8.73;;;5.70;99.90;;;;;;5054424;28;20051;-59
2022/04/28 04:08:49;;;;;;;17.13;9.90;;;5.70;99.90;;;;;;5072315;28;20021;-55
2022/04/28 04:11:15;;;;;;;17.10;9.35;;;5.70;99.90;;;;;;5054614;28;20017;-58
2022/04/28 04:13:41;;;;;;;15.38;8.63;;;5.70;99.90;;;;;;5072373;28;20081;-57
2022/04/28 04:16:07;;;;;;;15.80;8.30;;;5.80;99.90;;;;;;5054845;28;20032;-55
2022/04/28 04:18:32;;;;;;;17.98;9.38;;;5.80;99.90;;;;;;5054249;28;20058;-55
2022/04/28 04:20:59;;;;;;;17.25;9.00;;;5.80;99.90;;;;;;5071931;28;20025;-59
2022/04/28 04:23:24;;;;;;;20.80;10.07;;;5.80;99.90;;;;;;5054349;28;20025;-60
2022/04/28 04:25:50;;;;;;;16.52;9.02;;;5.80;99.90;;;;;;5054072;28;20031;-60
2022/04/28 04:28:15;;;;;;;16.33;9.18;;;5.90;99.90;;;;;;5071907;28;20036;-59
2022/04/28 04:33:25;;;;;;;17.88;8.85;;;6.00;99.90;;;;;;5076362;28;20028;-59
2022/04/28 04:35:51;;;;;;;16.98;8.90;;;6.20;99.90;;;;;;5076123;28;20024;-60
2022/04/28 04:38:16;;;;;;;21.30;9.15;;;6.40;99.90;;;;;;5058093;28;20051;-60
2022/04/28 04:40:42;;;;;;;14.60;8.88;;;6.60;99.90;;;;;;5057934;28;20033;-59
2022/04/28 04:43:13;;;;;;;20.92;8.10;;;6.90;99.90;;;;;;5075880;28;20034;-59
2022/04/28 04:45:42;;;;;;;17.60;8.10;;;7.10;99.90;;;;;;5075972;28;20025;-60
2022/04/28 04:48:09;;;;;;;13.13;7.65;;;7.40;99.90;;;;;;5057707;28;20031;-60
2022/04/28 04:50:35;;;;;;;16.40;8.57;;;7.60;99.90;;;;;;5076280;28;20097;-59
2022/04/28 04:53:01;;;;;;;17.67;7.93;;;7.90;99.90;;;;;;5076002;28;20021;-60
2022/04/28 04:55:26;;;;;;;17.67;7.80;;;8.30;99.90;;;;;;5057834;28;20024;-59
2022/04/28 04:57:52;;;;;;;12.70;8.40;;;8.50;99.90;;;;;;5075666;28;20058;-59
2022/04/28 05:00:18;;;;;;;30.23;11.50;;;8.80;99.90;;;;;;5057706;28;20074;-60
2022/04/28 05:02:43;;;;;;;13.52;6.80;;;9.00;99.90;;;;;;5057583;28;20052;-60
2022/04/28 05:05:09;;;;;;;16.80;8.13;;;9.30;99.90;;;;;;5075725;28;20578;-59
2022/04/28 05:07:35;;;;;;;17.08;8.50;;;9.70;99.90;;;;;;5057521;28;20110;-60
2022/04/28 05:10:00;;;;;;;12.07;7.30;;;9.80;99.90;;;;;;5057814;28;20023;-60
2022/04/28 05:12:26;;;;;;;11.23;7.10;;;10.20;99.90;;;;;;5057456;28;20085;-60
2022/04/28 05:14:52;;;;;;;14.98;8.95;;;10.70;99.90;;;;;;5075499;28;20078;-60
2022/04/28 05:17:17;;;;;;;11.50;7.53;;;11.00;99.90;;;;;;5057846;28;20111;-60
2022/04/28 05:19:43;;;;;;;16.27;9.68;;;11.40;99.90;;;;;;5057582;28;20021;-60
2022/04/28 05:22:09;;;;;;;23.23;11.70;;;11.80;99.90;;;;;;5075686;28;20024;-59
2022/04/28 05:24:34;;;;;;;29.85;14.40;;;11.90;99.90;;;;;;5057571;28;20020;-60
2022/04/28 05:27:00;;;;;;;28.13;13.23;;;12.30;99.90;;;;;;5057289;28;20025;-60
2022/04/28 05:29:25;;;;;;;25.92;12.07;;;12.60;99.90;;;;;;5057227;28;20390;-59
2022/04/28 05:31:51;;;;;;;20.83;11.27;;;12.90;99.90;;;;;;5074989;28;20025;-60
2022/04/28 05:34:17;;;;;;;20.10;11.55;;;13.30;99.90;;;;;;5075467;28;20089;-60
2022/04/28 05:36:44;;;;;;;20.55;12.07;;;13.60;99.90;;;;;;5075188;28;20028;-58
2022/04/28 05:39:10;;;;;;;23.92;13.43;;;13.80;99.90;;;;;;5075196;28;20051;-60
2022/04/28 05:41:36;;;;;;;24.10;13.00;;;14.10;99.90;;;;;;5057768;28;20035;-60
2022/04/28 05:46:46;;;;;;;28.02;13.65;;;14.50;99.90;;;;;;5075138;28;20036;-58
2022/04/28 05:49:11;;;;;;;28.58;14.50;;;15.10;99.90;;;;;;5057011;28;20016;-60
2022/04/28 05:51:37;;;;;;;22.48;13.35;;;15.60;99.90;;;;;;5056783;28;20023;-60
2022/04/28 05:54:03;;;;;;;27.67;13.98;;;16.10;99.90;;;;;;5057992;28;20020;-58
2022/04/28 05:56:29;;;;;;;23.13;13.52;;;16.30;99.90;;;;;;5074687;28;20016;-60
2022/04/28 05:58:55;;;;;;;16.33;10.52;;;16.80;99.90;;;;;;5057537;28;20032;-60
2022/04/28 06:01:21;;;;;;;16.63;10.07;;;17.30;99.90;;;;;;5074418;28;20115;-55
2022/04/28 06:03:47;;;;;;;14.77;9.10;;;17.60;99.90;;;;;;5056440;28;20063;-57
2022/04/28 06:06:13;;;;;;;17.77;10.45;;;18.10;99.90;;;;;;5057102;28;20119;-58
2022/04/28 06:08:41;;;;;;;18.08;10.23;;;18.20;99.90;;;;;;5056784;28;20050;-60
2022/04/28 06:11:06;;;;;;;16.10;10.77;;;18.10;99.90;;;;;;5056958;28;20115;-60
2022/04/28 06:13:32;;;;;;;16.40;10.77;;;18.40;99.90;;;;;;5056732;28;20114;-58
2022/04/28 06:15:58;;;;;;;13.02;9.77;;;19.00;99.90;;;;;;5074261;28;20467;-60
2022/04/28 06:18:24;;;;;;;13.57;9.93;;;19.30;99.90;;;;;;5074293;28;20201;-60
2022/04/28 06:20:50;;;;;;;19.35;11.32;;;19.70;99.90;;;;;;5074141;28;20031;-61
2022/04/28 06:23:15;;;;;;;15.25;10.50;;;20.20;99.90;;;;;;5074113;28;20021;-61
2022/04/28 06:25:41;;;;;;;15.05;10.20;;;20.80;99.90;;;;;;5074301;28;20028;-61
2022/04/28 06:28:09;;;;;;;19.23;10.40;;;21.30;99.90;;;;;;5056016;28;20081;-61
2022/04/28 06:30:35;;;;;;;12.00;9.15;;;21.60;99.90;;;;;;5055897;28;20548;-62
2022/04/28 06:33:00;;;;;;;15.15;10.90;;;22.00;99.90;;;;;;5073996;28;20033;-61
2022/04/28 06:35:26;;;;;;;13.48;10.30;;;22.20;99.90;;;;;;5073788;28;20017;-61
2022/04/28 06:37:52;;;;;;;13.20;9.75;;;22.40;99.90;;;;;;5073709;28;20099;-61
2022/04/28 06:40:17;;;;;;;17.05;11.48;;;23.10;98.10;;;;;;5055973;28;20074;-61
2022/04/28 06:42:50;;;;;;;13.40;11.05;;;23.40;97.10;;;;;;5073848;28;20039;-61
2022/04/28 06:45:15;;;;;;;13.43;10.93;;;23.70;96.10;;;;;;5073915;28;20074;-61
2022/04/28 06:47:41;;;;;;;14.85;10.52;;;24.30;94.80;;;;;;5073545;28;20028;-61
2022/04/28 06:50:07;;;;;;;13.15;9.95;;;24.50;93.30;;;;;;5055694;28;20016;-61
2022/04/28 06:52:35;;;;;;;18.30;11.82;;;24.80;95.20;;;;;;5055246;28;20025;-61
2022/04/28 06:55:01;;;;;;;14.05;10.80;;;25.30;89.60;;;;;;5055635;28;20042;-62
2022/04/28 06:57:27;;;;;;;14.90;11.93;;;24.80;91.00;;;;;;5056299;28;20020;-62
2022/04/28 06:59:52;;;;;;;11.60;9.27;;;25.00;87.70;;;;;;5055769;28;20024;-62
2022/04/28 07:02:20;;;;;;;18.05;12.48;;;25.60;90.10;;;;;;5073418;28;20099;-61
2022/04/28 07:04:46;;;;;;;17.83;11.35;;;25.30;84.30;;;;;;5055512;28;20033;-61
2022/04/28 07:07:11;;;;;;;15.63;11.45;;;25.50;82.80;;;;;;5055432;28;20046;-62
2022/04/28 07:09:37;;;;;;;19.80;9.80;;;26.00;83.30;;;;;;5073448;28;20017;-62
2022/04/28 07:12:03;;;;;;;13.25;9.82;;;26.30;82.10;;;;;;5073645;28;20025;-62
2022/04/28 07:14:28;;;;;;;13.93;10.73;;;27.00;80.20;;;;;;5073807;28;20078;-62
2022/04/28 07:16:54;;;;;;;15.65;11.02;;;27.30;76.90;;;;;;5055287;28;20082;-62
2022/04/28 07:19:20;;;;;;;15.98;11.73;;;27.70;75.10;;;;;;5056278;28;20024;-62
2022/04/28 07:21:46;;;;;;;14.13;10.35;;;27.00;74.30;;;;;;5073575;28;20494;-62
2022/04/28 07:24:11;;;;;;;18.27;10.52;;;27.10;74.20;;;;;;5073487;28;20021;-62
2022/04/28 07:26:37;;;;;;;11.88;9.35;;;27.80;72.30;;;;;;5073500;28;20028;-62
2022/04/28 07:29:05;;;;;;;17.50;12.00;;;28.00;74.70;;;;;;5055200;28;20029;-62
2022/04/28 07:31:31;;;;;;;14.38;11.02;;;27.60;70.00;;;;;;5055889;28;20054;-62
2022/04/28 07:33:57;;;;;;;13.50;10.05;;;27.30;72.60;;;;;;5055521;28;20031;-62
2022/04/28 07:36:22;;;;;;;18.00;11.40;;;28.60;71.50;;;;;;5056056;28;20029;-62
2022/04/28 07:38:48;;;;;;;18.58;11.30;;;28.40;68.80;;;;;;5055210;28;20025;-62
2022/04/28 07:41:15;;;;;;;13.75;10.35;;;27.30;68.80;;;;;;5055506;28;20024;-62
2022/04/28 07:43:41;;;;;;;14.90;10.30;;;28.20;69.70;;;;;;5055383;28;20020;-62
2022/04/28 07:46:07;;;;;;;14.50;10.30;;;28.90;68.00;;;;;;5055070;28;20025;-63
2022/04/28 07:48:33;;;;;;;11.38;8.88;;;29.30;68.00;;;;;;5055006;28;20036;-63
2022/04/28 07:50:58;;;;;;;15.10;10.85;;;30.50;66.10;;;;;;5072870;28;20021;-63
2022/04/28 07:53:24;;;;;;;17.42;10.75;;;31.10;63.50;;;;;;5055894;28;20024;-63
2022/04/28 07:58:34;;;;;;;12.82;9.88;;;31.90;61.00;;;;;;5073578;28;20062;-63
2022/04/28 08:01:00;;;;;;;14.10;10.35;;;31.40;61.20;;;;;;5073209;28;20020;-63
2022/04/28 08:03:26;;;;;;;12.40;9.65;;;30.30;61.90;;;;;;5074349;28;20104;-63
2022/04/28 08:05:55;;;;;;;12.15;8.10;;;30.70;60.90;;;;;;5058948;28;20036;-63
2022/04/28 08:08:21;;;;;;;10.93;8.57;;;31.00;60.00;;;;;;5058639;28;20525;-63
2022/04/28 08:10:47;;;;;;;10.55;7.30;;;32.20;59.80;;;;;;5076573;28;20016;-63
2022/04/28 08:13:13;;;;;;;10.93;8.70;;;33.20;58.50;;;;;;5058469;28;20078;-63
2022/04/28 08:15:38;;;;;;;14.13;9.13;;;34.00;56.90;;;;;;5058506;28;20024;-63
2022/04/28 08:18:04;;;;;;;11.35;8.38;;;34.40;56.50;;;;;;5058535;28;20036;-63
2022/04/28 08:20:30;;;;;;;10.98;9.05;;;34.90;57.10;;;;;;5076828;28;20028;-63
2022/04/28 08:22:56;;;;;;;11.65;9.65;;;34.30;54.50;;;;;;5058227;28;20029;-63
2022/04/28 08:25:22;;;;;;;10.43;9.27;;;34.60;53.10;;;;;;5058646;28;20105;-63
2022/04/28 08:27:48;;;;;;;11.13;9.35;;;34.60;53.10;;;;;;5076017;28;20056;-63
2022/04/28 08:30:14;;;;;;;9.18;6.70;;;34.20;54.60;;;;;;5076358;28;20020;-63
2022/04/28 08:32:40;;;;;;;9.88;7.63;;;34.80;54.50;;;;;;5075997;28;20463;-63
2022/04/28 08:35:06;;;;;;;13.88;9.32;;;35.10;53.00;;;;;;5076109;28;20043;-64
2022/04/28 08:37:32;;;;;;;13.85;9.00;;;35.80;50.80;;;;;;5058872;28;20021;-63
2022/04/28 08:39:57;;;;;;;13.30;8.38;;;35.40;51.80;;;;;;5075926;28;20386;-63
2022/04/28 08:42:26;;;;;;;10.07;7.82;;;35.80;50.70;;;;;;5057867;28;20028;-64
2022/04/28 08:44:55;;;;;;;9.48;7.63;;;36.30;49.50;;;;;;5058076;28;20082;-63
2022/04/28 08:47:21;;;;;;;12.43;8.80;;;36.20;48.20;;;;;;5058156;28;20116;-63
2022/04/28 08:49:49;;;;;;;12.75;9.65;;;35.70;49.00;;;;;;5075793;28;20071;-63
2022/04/28 08:52:17;;;;;;;11.75;8.88;;;35.00;49.10;;;;;;5076119;28;20016;-63
2022/04/28 08:54:45;;;;;;;14.25;7.60;;;32.50;51.60;;;;;;5058055;28;20021;-63
2022/04/28 08:57:13;;;;;;;10.27;7.57;;;33.10;52.70;;;;;;5058251;28;20036;-63
2022/04/28 08:59:40;;;;;;;10.88;8.20;;;33.90;52.10;;;;;;5058371;28;20025;-63
2022/04/28 09:02:07;;;;;;;10.02;7.45;;;34.80;50.90;;;;;;5075659;28;20033;-63
2022/04/28 09:04:33;;;;;;;13.77;8.23;;;36.20;48.90;;;;;;5075643;28;20033;-64
2022/04/28 09:06:59;;;;;;;9.30;7.72;;;36.90;47.50;;;;;;5075564;28;20431;-63
2022/04/28 09:09:27;;;;;;;11.70;7.43;;;36.90;48.00;;;;;;5076015;28;20025;-64
2022/04/28 09:11:58;;;;;;;11.55;8.00;;;36.20;48.80;;;;;;5057930;28;20021;-63
2022/04/28 09:14:24;;;;;;;13.20;8.48;;;36.00;47.90;;;;;;5057775;28;20059;-63
2022/04/28 09:17:01;;;;;;;11.35;8.10;;;36.20;47.90;;;;;;5056991;28;20105;-63
2022/04/28 09:19:32;;;;;;;8.48;7.40;;;36.50;47.00;;;;;;5057605;28;20028;-63
2022/04/28 09:22:09;;;;;;;8.90;6.68;;;37.30;49.30;;;;;;5058140;28;20107;-63
2022/04/28 09:24:40;;;;;;;11.23;7.10;;;37.40;46.80;;;;;;5057991;28;20110;-63
2022/04/28 09:27:08;;;;;;;11.27;7.32;;;37.60;46.50;;;;;;5075566;28;20032;-63
2022/04/28 09:29:36;;;;;;;11.10;7.32;;;37.80;45.50;;;;;;5075195;28;20021;-63
2022/04/28 09:32:08;;;;;;;13.70;7.80;;;38.50;44.80;;;;;;5057151;28;20399;-64
2022/04/28 09:34:34;;;;;;;9.63;7.25;;;38.30;45.20;;;;;;5057143;28;20024;-63
2022/04/28 09:37:01;;;;;;;9.52;6.13;;;37.10;45.70;;;;;;5057160;28;20023;-63
2022/04/28 09:42:31;;;;;;;10.80;7.13;;;37.20;46.20;;;;;;5075053;28;20102;-63
2022/04/28 09:44:59;;;;;;;8.25;7.05;;;38.00;45.20;;;;;;5057096;28;20027;-63
2022/04/28 09:47:26;;;;;;;8.23;6.90;;;38.00;44.90;;;;;;5074817;28;20024;-63
2022/04/28 09:49:53;;;;;;;8.90;7.78;;;38.90;43.90;;;;;;5056835;28;20108;-63
2022/04/28 09:52:31;;;;;;;9.73;7.18;;;37.70;44.10;;;;;;5075018;28;20383;-63
2022/04/28 09:54:58;;;;;;;6.72;5.30;;;37.40;46.50;;;;;;5074979;28;20131;-63
2022/04/28 09:57:24;;;;;;;7.47;6.75;;;38.10;46.00;;;;;;5074826;28;20028;-63
2022/04/28 09:59:54;;;;;;;6.53;5.82;;;38.20;44.30;;;;;;5074528;28;20024;-63
2022/04/28 10:02:22;;;;;;;9.25;7.50;;;38.20;43.30;;;;;;5074582;28;20103;-63
2022/04/28 10:04:48;;;;;;;10.18;7.25;;;36.50;43.70;;;;;;5056404;28;20039;-63
2022/04/28 10:07:15;;;;;;;6.93;6.03;;;35.40;44.40;;;;;;5056883;28;20028;-63
2022/04/28 10:09:47;;;;;;;8.00;6.93;;;35.80;45.60;;;;;;5056436;28;20048;-63
2022/04/28 10:12:27;;;;;;;7.32;6.03;;;36.20;44.50;;;;;;5056654;28;20107;-63
2022/04/28 10:14:54;;;;;;;8.43;5.70;;;36.50;44.50;;;;;;5074565;28;20055;-63
2022/04/28 10:17:33;;;;;;;7.78;6.57;;;36.30;44.00;;;;;;5074196;28;20029;-63
2022/04/28 10:20:05;;;;;;;8.55;4.88;;;35.70;45.10;;;;;;5056398;28;20059;-62
2022/04/28 10:22:36;;;;;;;13.07;4.95;;;34.50;48.00;;;;;;5074076;28;20570;-63
2022/04/28 10:33:45;;;;;;;7.18;4.00;;;33.00;45.20;;;;;;5032345;28;20392;-62
2022/04/28 10:36:20;;;;;;;5.63;4.38;;;32.30;46.30;;;;;;5032039;28;20022;-62
2022/04/28 10:39:07;;;;;;;9.10;4.00;;;31.10;46.10;;;;;;5046094;28;20028;-63
2022/04/28 10:41:33;;;;;;;7.50;5.18;;;30.30;48.40;;;;;;5055839;28;20028;-62
2022/04/28 10:44:00;;;;;;;6.28;4.10;;;29.50;47.30;;;;;;5055984;28;20016;-62
2022/04/28 10:46:30;;;;;;;6.68;4.07;;;29.10;50.20;;;;;;5055921;28;20023;-62
2022/04/28 10:49:03;;;;;;;7.38;4.22;;;28.80;49.10;;;;;;5056246;28;20032;-62
2022/04/28 10:51:32;;;;;;;7.10;3.35;;;28.00;51.80;;;;;;5073637;28;20085;-62
2022/04/28 10:54:21;;;;;;;6.53;4.90;;;28.00;51.90;;;;;;5073742;28;20364;-62
2022/04/28 10:57:08;;;;;;;7.20;3.55;;;27.90;52.40;;;;;;5073659;28;20020;-61
2022/04/28 10:59:34;;;;;;;6.93;4.03;;;27.50;52.70;;;;;;5073044;28;20021;-61
2022/04/28 11:02:15;;;;;;;11.50;4.93;;;26.30;50.50;;;;;;5055381;28;20024;-61
2022/04/28 11:04:49;;;;;;;4.07;3.30;;;24.90;52.00;;;;;;5056306;28;20067;-61
2022/04/28 11:07:21;;;;;;;5.90;3.15;;;24.50;55.60;;;;;;5073677;28;20162;-61
2022/04/28 11:09:57;;;;;;;5.05;3.58;;;24.70;56.10;;;;;;5055517;28;20021;-61
2022/04/28 11:12:25;;;;;;;5.80;3.75;;;25.20;55.00;;;;;;5055470;28;20032;-61
2022/04/28 11:14:59;;;;;;;3.53;3.22;;;25.30;54.70;;;;;;5055402;28;20025;-61
2022/04/28 11:17:26;;;;;;;4.43;3.20;;;25.40;54.30;;;;;;5073395;28;20028;-61
2022/04/28 11:19:53;;;;;;;7.53;4.35;;;25.70;54.10;;;;;;5056411;28;20035;-61
2022/04/28 11:22:18;;;;;;;5.22;3.13;;;24.70;53.30;;;;;;5073490;28;20021;-61
2022/04/28 11:24:45;;;;;;;6.53;3.38;;;24.70;54.20;;;;;;5073379;28;20104;-61
2022/04/28 11:27:24;;;;;;;3.78;3.20;;;24.70;53.30;;;;;;5055399;28;20100;-61
2022/04/28 11:29:50;;;;;;;3.42;3.13;;;24.70;54.30;;;;;;5055617;28;20024;-61
2022/04/28 11:32:16;;;;;;;5.18;2.80;;;24.60;54.30;;;;;;5055222;28;20552;-61
2022/04/28 11:34:44;;;;;;;4.03;3.10;;;24.60;55.70;;;;;;5055259;28;20112;-61
2022/04/28 11:37:18;;;;;;;3.03;2.60;;;24.60;50.80;;;;;;5073305;28;20048;-61
2022/04/28 11:39:49;;;;;;;4.05;2.60;;;24.20;54.70;;;;;;5058656;28;20028;-61
2022/04/28 11:42:18;;;;;;;;;;;24.50;55.00;;;;;;5060213;28;20028;-61
2022/04/28 11:44:56;;;;;;;7.65;2.72;;;24.50;55.20;;;;;;5059349;28;19904;-61
2022/04/28 11:47:24;;;;;;;7.80;3.17;;;24.50;52.70;;;;;;5059151;28;20021;-61
2022/04/28 11:50:02;;;;;;;3.22;2.88;;;24.40;51.40;;;;;;5077155;28;20021;-60
2022/04/28 11:52:31;;;;;;;3.40;2.72;;;24.50;52.10;;;;;;5059336;28;20048;-60
2022/04/28 11:55:06;;;;;;;5.20;3.05;;;24.50;53.30;;;;;;5059053;28;20135;-61
2022/04/28 11:57:32;;;;;;;5.47;2.90;;;24.60;54.40;;;;;;5059142;28;20028;-61
2022/04/28 11:59:58;;;;;;;3.97;2.95;;;24.50;54.60;;;;;;5059521;28;20094;-61
2022/04/28 12:02:25;;;;;;;3.92;2.80;;;24.40;55.00;;;;;;5059311;28;20029;-61
2022/04/28 12:04:51;;;;;;;4.30;3.17;;;24.40;55.60;;;;;;5076817;28;20115;-61
2022/04/28 12:07:20;;;;;;;5.15;2.28;;;24.20;53.50;;;;;;5076815;28;20459;-61
2022/04/28 12:15:17;;;;;;;2.72;2.53;;;24.30;53.60;;;;;;5077210;28;20027;-61
2022/04/28 12:20:59;;;;;;;7.68;3.08;;;24.50;54.40;;;;;;5076771;28;20031;-61
2022/04/28 12:23:28;;;;;;;5.10;2.80;;;24.50;55.00;;;;;;5059431;28;20028;-61
2022/04/28 12:25:58;;;;;;;5.50;3.38;;;24.40;55.30;;;;;;5058556;28;20028;-61
2022/04/28 12:28:29;;;;;;;5.47;3.15;;;24.30;53.90;;;;;;5058521;28;20025;-61
2022/04/28 12:30:55;;;;;;;;;;;24.00;55.50;;;;;;5059583;28;20024;-60
2022/04/28 12:33:21;;;;;;;6.00;3.17;;;23.50;53.60;;;;;;5058766;28;19904;-60
2022/04/28 12:35:47;;;;;;;6.47;3.28;;;22.80;54.50;;;;;;5076244;28;20021;-61
2022/04/28 12:38:23;;;;;;;4.32;2.80;;;22.70;56.40;;;;;;5076482;28;20127;-60
2022/04/28 12:40:48;;;;;;;7.20;3.28;;;22.90;58.00;;;;;;5058241;28;20090;-61
2022/04/28 12:43:34;;;;;;;4.28;3.53;;;22.90;56.30;;;;;;5076229;28;20055;-60
2022/04/28 12:46:00;;;;;;;4.50;3.17;;;22.50;56.00;;;;;;5076267;28;20051;-59
2022/04/28 12:48:31;;;;;;;4.97;2.75;;;22.10;57.50;;;;;;5058091;28;20025;-61
2022/04/28 12:51:17;;;;;;;3.22;2.92;;;21.90;58.30;;;;;;5057301;28;20025;-60
2022/04/28 12:53:52;;;;;;;3.85;3.20;;;22.00;59.20;;;;;;5076248;28;20028;-61
2022/04/28 12:56:30;;;;;;;5.65;3.38;;;21.90;57.40;;;;;;5057923;28;20447;-61
2022/04/28 12:59:00;;;;;;;6.35;3.05;;;21.80;57.90;;;;;;5076112;28;20025;-61
2022/04/28 13:01:27;;;;;;;5.77;3.07;;;21.60;58.20;;;;;;5057991;28;20025;-60
2022/04/28 13:03:56;;;;;;;3.85;2.92;;;21.40;57.60;;;;;;5075593;28;20278;-58
2022/04/28 13:06:26;;;;;;;4.57;3.08;;;21.50;58.20;;;;;;5076137;28;20067;-60
2022/04/28 13:08:54;;;;;;;5.88;3.35;;;21.10;58.30;;;;;;5058205;28;20017;-61
2022/04/28 13:11:25;;;;;;;4.85;2.97;;;21.10;60.60;;;;;;5057899;28;20021;-57
2022/04/28 13:13:52;;;;;;;4.22;3.03;;;20.90;58.30;;;;;;5058386;28;20035;-60
2022/04/28 13:16:18;;;;;;;4.38;2.75;;;20.80;58.90;;;;;;5057946;28;20029;-59
2022/04/28 13:18:45;;;;;;;4.10;2.80;;;20.80;59.10;;;;;;5075717;28;20016;-61
2022/04/28 13:21:13;;;;;;;6.97;3.15;;;20.80;59.10;;;;;;5057704;28;20027;-61
2022/04/28 13:23:43;;;;;;;9.80;3.50;;;20.70;59.10;;;;;;5075625;28;20017;-59
2022/04/28 13:26:11;;;;;;;4.22;2.97;;;20.70;59.30;;;;;;5057673;28;20127;-59